Nearby METAR Reports

 

KJOT - Joliet, Illinois, USA
Distance from station: SSW 3mi, 6km
Updated: 11/18/2017 3:35am
Mist, Overcast
Mist, Overcast
 Wind from NNE
Wind: NNE 3 mph , 6 km/h
Temperature: 48°F , 9°C
Dew Point: 48°F , 9°C
Humidity: 100%
Barometer: 29.50 inHg , 999 hPa
Summary: Mist
Clouds: Overcast
Visibility: 1 1/2 miles , 2 km
Cloud details: Partly cloudy 700 ft
Overcast 1200 ft
2017/11/18 09:35 KJOT 180935Z AUTO 02003KT 1 1/2SM BR SCT007 OVC012 09/09 A2950 RMK AO2 LTG DSNT SE T00880087
KLOT - Romeoville/Chi, Illinois, USA
Distance from station: NE 4mi, 6km
Updated: 11/18/2017 3:35am
Mist, Overcast
Mist, Overcast
 Wind from calm
Wind: Calm
Temperature: 46°F , 8°C
Dew Point: 46°F , 8°C
Humidity: 100%
Barometer: 29.51 inHg , 999.3 hPa
Summary: Mist
Clouds: Overcast
Visibility: 1 mile , 2 km
Cloud details: Overcast 500 ft
2017/11/18 09:35 KLOT 180935Z AUTO 00000KT 1SM BR OVC005 08/08 A2951 RMK AO2 LTG DSNT S T00770075
 
KC09 - Morris-Washburn, Illinois, USA
Distance from station: SW 16mi, 26km
Updated: 11/18/2017 3:35am
Mist, Overcast
Mist, Overcast
 Wind from calm
Wind: Calm
Temperature: 46°F , 8°C
Dew Point: 46°F , 8°C
Humidity: 100%
Barometer: 29.49 inHg , 998.6 hPa
Summary: Mist
Clouds: Overcast
Visibility: 1 1/2 miles , 2 km
Cloud details: Mostly cloudy 400 ft
Overcast 1100 ft
2017/11/18 09:35 KC09 180935Z AUTO 00000KT 1 1/2SM BR BKN004 OVC011 08/08 A2949 RMK AO2 LTG DSNT SE T00800075
KARR - Chicago/Aurora, Illinois, USA
Distance from station: NW 22mi, 35km
Updated: 11/18/2017 3:52am
Mist, Overcast
Mist, Overcast
 Wind from calm
Wind: Calm
Temperature: 45°F , 7°C
Dew Point: 45°F , 7°C
Humidity: 100%
Barometer: 29.50 inHg , 999 hPa
Summary: Mist
Clouds: Overcast
Visibility: 3 miles , 5 km
Cloud details: Few Clouds 300 ft
Overcast 1400 ft
2017/11/18 09:52 KARR 180952Z AUTO 00000KT 3SM BR FEW003 OVC014 07/07 A2950 RMK AO2 SLP995 T00720072
 
KDPA - Chicago/Dupage, Illinois, USA
Distance from station: NNW 25mi, 40km
Updated: 11/18/2017 3:52am
Mist, Overcast
Mist, Overcast
 Wind from NE
Wind: NE 3 mph , 6 km/h
Temperature: 45°F , 7°C
Dew Point: 45°F , 7°C
Humidity: 100%
Barometer: 29.50 inHg , 999 hPa
Summary: Mist
Clouds: Overcast
Visibility: 2 1/2 miles , 2 km
Cloud details: Overcast 700 ft
2017/11/18 09:52 KDPA 180952Z AUTO 04003KT 2 1/2SM BR OVC007 07/07 A2950 RMK AO2 CIG 003V009 SLP992 T00720072
KMDW - Chicago, Illinois, USA
Distance from station: NE 26mi, 42km
Updated: 11/18/2017 3:26am
Mist, Overcast
Mist, Overcast
 Wind from calm
Wind: Calm
Temperature: 48°F , 9°C
Dew Point: 48°F , 9°C
Humidity: 100%
Barometer: 29.51 inHg , 999.3 hPa
Summary: Mist
Clouds: Overcast
Visibility: 1 1/4 miles , 2 km
Cloud details: Mostly cloudy 300 ft
Overcast 600 ft
2017/11/18 09:26 KMDW 180926Z 00000KT 1 1/4SM BR BKN003 OVC006 09/09 A2951 RMK AO2 DZE20 P0000 T00890089
 
KORD - Chicago O'hare, Illinois, USA
Distance from station: NNE 31mi, 50km
Updated: 11/18/2017 3:51am
Mist, Overcast
Mist, Overcast
 Wind from NNE
Wind: NNE 5 mph , 7 km/h
Temperature: 46°F , 8°C
Wind Chill: 44°F , 7°C
Dew Point: 45°F , 7°C
Humidity: 93%
Barometer: 29.50 inHg , 999 hPa
Summary: Mist
Clouds: Overcast
Visibility: 4 miles , 6 km
Cloud details: Mostly cloudy 300 ft
Overcast 1000 ft
2017/11/18 09:51 KORD 180951Z 03004KT 4SM BR BKN003 OVC010 08/07 A2950 RMK AO2 DZE06 SLP991 P0001 T00780067
KIGQ - Chicago/Lansing, Illinois, USA
Distance from station: E 32mi, 52km
Updated: 11/18/2017 3:35am
Rain, Overcast
Rain, Overcast
 Wind from calm
Wind: Calm
Temperature: 46°F , 8°C
Dew Point: 46°F , 8°C
Humidity: 100%
Barometer: 29.52 inHg , 999.7 hPa
Summary: Rain
Clouds: Overcast
Visibility: 1 3/4 miles , 5 km
Cloud details: Mostly cloudy 800 ft
Overcast 1400 ft
2017/11/18 09:35 KIGQ 180935Z AUTO 00000KT 1 3/4SM RA BKN008 OVC014 08/08 A2952 RMK AO2 LTG DSNT S T00800080
 
KDKB - De Kalb, Illinois, USA
Distance from station: NW 38mi, 61km
Updated: 11/18/2017 3:35am
Mist, Overcast
Mist, Overcast
 Wind from N
Wind: N 8 mph , 13 km/h
Temperature: 43°F , 6°C
Wind Chill: 38°F , 3°C
Dew Point: 43°F , 6°C
Humidity: 100%
Barometer: 29.50 inHg , 999 hPa
Summary: Mist
Clouds: Overcast
Visibility: 3 miles , 5 km
Cloud details: Overcast 300 ft
2017/11/18 09:35 KDKB 180935Z AUTO 01007KT 3SM BR OVC003 06/06 A2950 RMK AO2 T00600059
KIKK - Kankakee, Illinois, USA
Distance from station: SSE 38mi, 61km
Updated: 11/18/2017 3:35am
Overcast
Overcast
 Wind from calm
Wind: Calm
Temperature: 48°F , 9°C
Dew Point: 46°F , 8°C
Humidity: 94%
Barometer: 29.50 inHg , 999 hPa
Clouds: Overcast
Visibility: 10 miles , 16 km
Cloud details: Overcast 2100 ft
2017/11/18 09:35 KIKK 180935Z AUTO 00000KT 10SM OVC021 09/08 A2950 RMK AO2 LTG DSNT SE AND S T00940083
 
KGYY - Gary Regional, Indiana, USA
Distance from station: E 38mi, 62km
Updated: 11/18/2017 3:15am
Light drizzle, Overcast
Light drizzle, Overcast
 Wind from calm
Wind: Calm
Temperature: 48°F , 9°C
Dew Point: 46°F , 8°C
Humidity: 94%
Barometer: 29.52 inHg , 999.7 hPa
Summary: Light Drizzle
Clouds: Overcast
Visibility: 1 1/4 miles , 2 km
Cloud details: Mostly cloudy 800 ft
Overcast 1500 ft
2017/11/18 09:15 KGYY 180915Z AUTO 00000KT 1 1/4SM -DZ BKN008 OVC015 09/08 A2952 RMK AO2 T00870084
KPWK - Palwaukee, Illinois, USA
Distance from station: NNE 40mi, 65km
Updated: 11/18/2017 3:52am
Mist, Overcast
Mist, Overcast
 Wind from calm
Wind: Calm
Temperature: 46°F , 8°C
Dew Point: 45°F , 7°C
Humidity: 93%
Barometer: 29.51 inHg , 999.3 hPa
Summary: Mist
Clouds: Overcast
Visibility: 4 miles , 6 km
Cloud details: Overcast 1000 ft
2017/11/18 09:52 KPWK 180952Z AUTO 00000KT 4SM BR OVC010 08/07 A2951 RMK AO2 CIG 007V012 SLP997 T00780072